Lifter — V2DD4 — position and weather

sailwx.info

Track history (hours):
 
Tides and Currents Weather Stations Pressure Air Temp Water Temp Dewpoint Dewpoint Depression Visibility Wind Speed Wind Dir Waves Ship Positions

Lifter

Last reported at 2017-Aug-22 06:58 UTC. Time now 2017-Aug-22 07:23 UTC.
Position N 40°29' E 017°13'.

Length 119 m; draft 5.5 m.

Type: Cargo ship. MMSI: 305175000.

Date/timePositionNaut miles runAvg speedWind from/ knotsBaromVisibWave heightAir tempDewpointWater temp
2017-Aug-22 06:58N 40°29' E 017°13'0 0.0
2017-Aug-22 06:28N 40°29' E 017°13'0 0.0
2017-Aug-22 05:58N 40°29' E 017°13'0 0.0
2017-Aug-22 05:28N 40°29' E 017°13'0 0.0
2017-Aug-22 04:58N 40°29' E 017°13'0 0.0
2017-Aug-22 04:28N 40°29' E 017°13'0 0.0
2017-Aug-22 03:58N 40°29' E 017°13'0 0.0
2017-Aug-22 03:28N 40°29' E 017°13'0 0.0
2017-Aug-22 02:58N 40°29' E 017°13'0 0.0
2017-Aug-22 02:28N 40°29' E 017°13'0 0.0
2017-Aug-22 01:58N 40°29' E 017°13'0 0.0
2017-Aug-22 01:28N 40°29' E 017°13'0 0.0
2017-Aug-22 00:58N 40°29' E 017°13'0 0.0
2017-Aug-22 00:28N 40°29' E 017°13'0 0.0
2017-Aug-21 23:55N 40°29' E 017°13'0 0.0
2017-Aug-21 23:28N 40°29' E 017°13'0 0.1
2017-Aug-21 23:00N 40°29' E 017°13'4 8.2
2017-Aug-21 22:30N 40°25' E 017°10'2 3.7
2017-Aug-21 22:00N 40°24' E 017°08'1 1.9
2017-Aug-21 21:30N 40°23' E 017°08'3 5.9
2017-Aug-21 21:00N 40°20' E 017°09'612.2
2017-Aug-21 20:30N 40°14' E 017°10'612.1
2017-Aug-21 20:00N 40°09' E 017°12'611.8
2017-Aug-21 19:30N 40°03' E 017°13'611.8
2017-Aug-21 19:00N 39°57' E 017°14'611.6
2017-Aug-21 18:30N 39°51' E 017°15'1811.7
2017-Aug-21 16:59N 39°33' E 017°17'12410.9
2017-Aug-21 05:33N 37°38' E 016°17'211.7
2017-Aug-21 05:25N 37°37' E 016°16'511.7
2017-Aug-21 05:00N 37°33' E 016°12'811.6
2017-Aug-21 04:21N 37°28' E 016°06'5012.1
2017-Aug-21 00:12N 36°49' E 015°26'212.5
2017-Aug-21 00:00N 36°47' E 015°24'612.5
2017-Aug-20 23:29N 36°43' E 015°18'912.4
2017-Aug-20 22:46N 36°36' E 015°10'412.0
2017-Aug-20 22:25N 36°34' E 015°05'612.8
2017-Aug-20 21:56N 36°34' E 014°57'712.8
2017-Aug-20 21:23N 36°35' E 014°49'613.1
2017-Aug-20 20:58N 36°36' E 014°42'713.4
2017-Aug-20 20:25N 36°39' E 014°33'613.7
2017-Aug-20 20:00N 36°41' E 014°27'713.8
2017-Aug-20 19:30N 36°43' E 014°19'714.1
2017-Aug-20 19:00N 36°46' E 014°11'713.9
2017-Aug-20 18:30N 36°49' E 014°03'713.7
2017-Aug-20 18:00N 36°51' E 013°55'713.6
2017-Aug-20 17:30N 36°54' E 013°47'713.6
2017-Aug-20 17:00N 36°56' E 013°39'713.5
2017-Aug-20 16:30N 36°59' E 013°32'713.5
2017-Aug-20 16:00N 37°02' E 013°24'713.6
2017-Aug-20 15:30N 37°04' E 013°16'713.6
2017-Aug-20 15:00N 37°07' E 013°08'713.6
2017-Aug-20 14:30N 37°09' E 013°00'713.8
2017-Aug-20 14:00N 37°12' E 012°52'713.8
2017-Aug-20 13:30N 37°13' E 012°43'713.6
2017-Aug-20 13:00N 37°14' E 012°35'713.7
2017-Aug-20 12:30N 37°14' E 012°26'713.7
2017-Aug-20 12:00N 37°15' E 012°18'2113.0
2017-Aug-20 10:26N 37°17' E 011°52'1112.1
2017-Aug-20 09:32N 37°18' E 011°38'011.9
2017-Aug-20 09:29N 37°18' E 011°38'611.9
2017-Aug-20 09:00N 37°19' E 011°31'612.4
2017-Aug-20 08:30N 37°20' E 011°23'612.5
2017-Aug-20 08:00N 37°21' E 011°15'612.7
2017-Aug-20 07:30N 37°24' E 011°08'612.8
2017-Aug-20 07:00N 37°25' E 011°00'612.7
2017-Aug-20 06:30N 37°27' E 010°52'612.8
2017-Aug-20 06:00N 37°28' E 010°44'713.1
2017-Aug-20 05:30N 37°29' E 010°36'612.8
2017-Aug-20 05:00N 37°30' E 010°28'2212.5
2017-Aug-20 03:15N 37°33' E 010°01'27512.1
2017-Aug-19 04:36N 37°08' E 004°16'212.7
2017-Aug-19 04:26N 37°08' E 004°14'1812.5
2017-Aug-19 03:02N 37°06' E 003°52'112.7
2017-Aug-19 02:56N 37°06' E 003°50'512.7
2017-Aug-19 02:30N 37°05' E 003°43'612.6
2017-Aug-19 02:00N 37°04' E 003°36'612.4
2017-Aug-19 01:30N 37°03' E 003°28'612.6
2017-Aug-19 01:00N 37°02' E 003°20'612.4
2017-Aug-19 00:30N 37°01' E 003°13'612.3
2017-Aug-19 00:00N 37°00' E 003°05'612.3
2017-Aug-18 23:30N 36°59' E 002°57'712.3
2017-Aug-18 22:55N 36°58' E 002°48'512.1
2017-Aug-18 22:30N 36°57' E 002°42'612.1
2017-Aug-18 22:00N 36°57' E 002°35'1112.0
2017-Aug-18 21:03N 36°55' E 002°21'111.8
2017-Aug-18 21:00N 36°55' E 002°20'611.7
2017-Aug-18 20:30N 36°54' E 002°13'611.6
2017-Aug-18 20:00N 36°53' E 002°06'611.7
2017-Aug-18 19:30N 36°53' E 001°58'611.6
2017-Aug-18 19:00N 36°52' E 001°51'611.5
2017-Aug-18 18:30N 36°51' E 001°44'611.5
2017-Aug-18 18:00N 36°50' E 001°37'1211.3
2017-Aug-18 16:57N 36°48' E 001°22'4711.8
2017-Aug-18 12:57N 36°41' E 000°24'1712.1
2017-Aug-18 11:34N 36°38' E 000°03'112.1
2017-Aug-18 11:30N 36°38' E 000°02'712.0
2017-Aug-18 10:53N 36°37' W 000°07'511.9
2017-Aug-18 10:26N 36°36' W 000°13'1111.6
2017-Aug-18 09:30N 36°34' W 000°27'712.1
2017-Aug-18 08:54N 36°33' W 000°36'512.6
2017-Aug-18 08:30N 36°33' W 000°42'612.5
2017-Aug-18 07:59N 36°32' W 000°50'812.4
2017-Aug-18 07:19N 36°31' W 001°00'1212.2
2017-Aug-18 06:20N 36°29' W 001°15'512.4
2017-Aug-18 05:56N 36°28' W 001°21'1012.5
2017-Aug-18 05:10N 36°27' W 001°33'312.6
2017-Aug-18 04:56N 36°26' W 001°37'712.6
2017-Aug-18 04:24N 36°25' W 001°45'1712.8
2017-Aug-18 03:03N 36°23' W 002°06'112.7
2017-Aug-18 02:56N 36°23' W 002°08'1812.8
2017-Aug-18 01:34N 36°20' W 002°29'512.6
2017-Aug-18 01:09N 36°20' W 002°36'18513.0
2017-Aug-17 10:53N 35°56' W 006°23'1512.5
2017-Aug-17 09:41N 35°59' W 006°41'1012.4
2017-Aug-17 08:53N 36°02' W 006°53'3012.3
2017-Aug-17 06:29N 36°09' W 007°29'1112.6
2017-Aug-17 05:38N 36°11' W 007°41'212.8
2017-Aug-17 05:30N 36°12' W 007°43'1412.8
2017-Aug-17 04:26N 36°15' W 007°60'612.5
2017-Aug-17 04:00N 36°16' W 008°06'912.4
2017-Aug-17 03:15N 36°19' W 008°18'312.1
2017-Aug-17 02:59N 36°19' W 008°22'612.1
2017-Aug-17 02:28N 36°21' W 008°29'712.2
2017-Aug-17 01:56N 36°22' W 008°37'1811.8
2017-Aug-17 00:26N 36°26' W 008°58'511.7
2017-Aug-17 00:00N 36°27' W 009°05'612.0
2017-Aug-16 23:30N 36°28' W 009°12'611.8
2017-Aug-16 23:01N 36°30' W 009°19'612.3
2017-Aug-16 22:30N 36°34' W 009°24'1212.9
2017-Aug-16 21:33N 36°43' W 009°35'112.9
2017-Aug-16 21:30N 36°44' W 009°35'612.6
2017-Aug-16 21:00N 36°50' W 009°38'713.1
2017-Aug-16 20:30N 36°56' W 009°40'713.5
2017-Aug-16 20:00N 37°03' W 009°41'713.1
2017-Aug-16 19:30N 37°09' W 009°42'713.2
2017-Aug-16 19:00N 37°16' W 009°44'612.9
2017-Aug-16 18:30N 37°22' W 009°46'612.9
2017-Aug-16 18:00N 37°28' W 009°49'713.3
2017-Aug-16 17:30N 37°34' W 009°51'713.1
2017-Aug-16 17:00N 37°41' W 009°53'612.9
2017-Aug-16 16:30N 37°47' W 009°55'612.7
2017-Aug-16 16:00N 37°53' W 009°56'612.6
2017-Aug-16 15:30N 37°59' W 009°58'612.7
2017-Aug-16 15:00N 38°06' W 009°60'612.4
2017-Aug-16 14:30N 38°11' W 010°02'712.5
2017-Aug-16 13:59N 38°18' W 010°04'612.9
2017-Aug-16 13:30N 38°24' W 010°06'612.8
2017-Aug-16 13:00N 38°30' W 010°08'612.6
2017-Aug-16 12:30N 38°36' W 010°10'612.2
2017-Aug-16 12:00N 38°42' W 010°11'612.3
2017-Aug-16 11:30N 38°48' W 010°11'612.8
2017-Aug-16 11:01N 38°55' W 010°11'713.0
2017-Aug-16 10:31N 39°01' W 010°11'612.8
2017-Aug-16 10:00N 39°08' W 010°12'713.1
2017-Aug-16 09:30N 39°14' W 010°12'612.6
2017-Aug-16 09:01N 39°20' W 010°12'612.5
2017-Aug-16 08:30N 39°27' W 010°13'612.2
2017-Aug-16 08:00N 39°33' W 010°13'812.6
2017-Aug-16 07:23N 39°41' W 010°13'512.5
2017-Aug-16 06:58N 39°46' W 010°13'612.6
2017-Aug-16 06:30N 39°52' W 010°13'712.7
2017-Aug-16 05:59N 39°58' W 010°13'712.2
2017-Aug-16 05:26N 40°05' W 010°11'512.5
2017-Aug-16 05:00N 40°10' W 010°11'712.3
2017-Aug-16 04:25N 40°17' W 010°11'4012.7
2017-Aug-16 01:17N 40°57' W 010°12'312.4
2017-Aug-16 01:00N 41°01' W 010°12'50612.0
2017-Aug-14 06:58N 48°51' W 005°49'811.8
2017-Aug-14 06:19N 48°56' W 005°40'411.7
2017-Aug-14 06:00N 48°59' W 005°35'712.1
2017-Aug-14 05:25N 49°02' W 005°26'512.4
2017-Aug-14 05:00N 49°05' W 005°19'612.8
2017-Aug-14 04:30N 49°08' W 005°11'913.4
2017-Aug-14 03:52N 49°13' W 004°60'513.7
2017-Aug-14 03:28N 49°16' W 004°53'714.0
2017-Aug-14 03:00N 49°19' W 004°44'714.1
2017-Aug-14 02:30N 49°22' W 004°35'714.0
2017-Aug-14 02:00N 49°26' W 004°25'713.8
2017-Aug-14 01:30N 49°29' W 004°16'713.4
2017-Aug-14 01:00N 49°33' W 004°07'713.2
2017-Aug-14 00:30N 49°36' W 003°58'612.7
2017-Aug-14 00:00N 49°39' W 003°50'612.3
2017-Aug-13 23:30N 49°42' W 003°42'612.1
2017-Aug-13 23:00N 49°45' W 003°34'611.8
2017-Aug-13 22:30N 49°48' W 003°26'611.6
2017-Aug-13 22:00N 49°51' W 003°18'611.5
2017-Aug-13 21:30N 49°54' W 003°11'611.9
2017-Aug-13 21:00N 49°57' W 003°03'612.3
2017-Aug-13 20:30N 49°60' W 002°54'713.1
2017-Aug-13 19:59N 50°02' W 002°44'613.6
2017-Aug-13 19:30N 50°04' W 002°34'1014.5
2017-Aug-13 18:47N 50°07' W 002°18'515.4
2017-Aug-13 18:26N 50°08' W 002°10'715.8
2017-Aug-13 18:00N 50°10' W 002°00'816.1
2017-Aug-13 17:31N 50°13' W 001°48'916.1
2017-Aug-13 16:59N 50°15' W 001°35'715.9
2017-Aug-13 16:30N 50°17' W 001°24'815.5
2017-Aug-13 16:00N 50°19' W 001°12'714.7
2017-Aug-13 15:30N 50°21' W 001°01'714.0
2017-Aug-13 15:00N 50°24' W 000°51'612.7
2017-Aug-13 14:30N 50°26' W 000°42'611.7
2017-Aug-13 14:00N 50°27' W 000°33'611.7
2017-Aug-13 13:30N 50°28' W 000°24'611.4
2017-Aug-13 13:00N 50°30' W 000°15'611.2
2017-Aug-13 12:30N 50°31' W 000°06'611.1
2017-Aug-13 12:00N 50°33' E 000°02'611.2
2017-Aug-13 11:30N 50°34' E 000°10'611.6
2017-Aug-13 11:00N 50°36' E 000°19'612.2
2017-Aug-13 10:30N 50°38' E 000°28'612.9
2017-Aug-13 10:00N 50°41' E 000°37'714.0
2017-Aug-13 09:30N 50°44' E 000°47'714.5
2017-Aug-13 09:00N 50°48' E 000°56'814.7
2017-Aug-13 08:29N 50°53' E 001°06'714.6
2017-Aug-13 08:00N 50°57' E 001°15'714.2
2017-Aug-13 07:31N 51°02' E 001°23'713.5
2017-Aug-13 07:01N 51°06' E 001°32'612.2
2017-Aug-13 06:31N 51°10' E 001°39'611.7
2017-Aug-13 06:00N 51°14' E 001°46'611.5
2017-Aug-13 05:31N 51°19' E 001°50'510.6
2017-Aug-13 05:01N 51°22' E 001°57'5 9.4
2017-Aug-13 04:30N 51°25' E 002°03'612.0
2017-Aug-13 04:01N 51°22' E 002°12'511.0
2017-Aug-13 03:31N 51°21' E 002°21'611.2
2017-Aug-13 03:01N 51°23' E 002°29'611.5
2017-Aug-13 02:30N 51°23' E 002°39'611.4
2017-Aug-13 02:01N 51°22' E 002°48'612.4
2017-Aug-13 01:31N 51°23' E 002°57'612.0
2017-Aug-13 01:01N 51°24' E 003°07'612.3
2017-Aug-13 00:30N 51°25' E 003°17'612.4
2017-Aug-13 00:01N 51°25' E 003°27'611.6
2017-Aug-12 23:30N 51°26' E 003°36'611.5
2017-Aug-12 23:01N 51°23' E 003°44'713.0
2017-Aug-12 22:31N 51°22' E 003°54'612.7
2017-Aug-12 22:00N 51°26' E 004°01'611.6
2017-Aug-12 21:30N 51°23' E 004°09'510.5
2017-Aug-12 21:01N 51°20' E 004°16'4 8.4
2017-Aug-12 20:31N 51°17' E 004°20'0 0.5
2017-Aug-12 20:00N 51°16' E 004°20'1 1.1
2017-Aug-12 19:30N 51°17' E 004°21'0 0.0
2017-Aug-12 19:00N 51°17' E 004°21'0 0.0
2017-Aug-12 18:30N 51°17' E 004°21'0 0.0
2017-Aug-12 18:00N 51°17' E 004°21'0 0.0
2017-Aug-12 17:30N 51°17' E 004°21'0 0.0
2017-Aug-12 17:00N 51°17' E 004°21'0 0.0
2017-Aug-12 16:30N 51°17' E 004°21'0 0.0
2017-Aug-12 16:00N 51°17' E 004°21'0 0.0
2017-Aug-12 15:30N 51°17' E 004°21'0 0.0
2017-Aug-12 15:00N 51°17' E 004°21'0 0.0
2017-Aug-12 14:30N 51°17' E 004°21'0 0.0
2017-Aug-12 14:00N 51°17' E 004°21'0 0.0
2017-Aug-12 13:30N 51°17' E 004°21'0 0.0
2017-Aug-12 12:57N 51°17' E 004°21'0 0.0
2017-Aug-12 12:30N 51°17' E 004°21'0 0.0
2017-Aug-12 12:00N 51°17' E 004°21'0 0.0
2017-Aug-12 11:27N 51°17' E 004°21'0 0.0
2017-Aug-12 11:00N 51°17' E 004°21'0 0.0
2017-Aug-12 10:30N 51°17' E 004°21'0 0.0
2017-Aug-12 10:00N 51°17' E 004°21'0 0.0
2017-Aug-12 09:30N 51°17' E 004°21'0 0.0
2017-Aug-12 09:00N 51°17' E 004°21'0 0.0
2017-Aug-12 08:30N 51°17' E 004°21'0 0.0
2017-Aug-12 07:57N 51°17' E 004°21'0 0.0
2017-Aug-12 07:30N 51°17' E 004°21'  
Track history (hours):
 
Tides and Currents Weather Stations Pressure Air Temp Water Temp Dewpoint Dewpoint Depression Visibility Wind Speed Wind Dir Waves Ship Positions

Lifter

Last reported at 2017-Aug-22 06:58 UTC. Time now 2017-Aug-22 07:23 UTC.
Position N 40°29' E 017°13'.

Length 119 m; draft 5.5 m.

Type: Cargo ship. MMSI: 305175000.

Date/timePositionNaut miles runAvg speedWind from/ knotsBaromVisibWave heightAir tempDewpointWater temp
2017-Aug-22 06:58N 40°29' E 017°13'0 0.0
2017-Aug-22 06:28N 40°29' E 017°13'0 0.0
2017-Aug-22 05:58N 40°29' E 017°13'0 0.0
2017-Aug-22 05:28N 40°29' E 017°13'0 0.0
2017-Aug-22 04:58N 40°29' E 017°13'0 0.0
2017-Aug-22 04:28N 40°29' E 017°13'0 0.0
2017-Aug-22 03:58N 40°29' E 017°13'0 0.0
2017-Aug-22 03:28N 40°29' E 017°13'0 0.0
2017-Aug-22 02:58N 40°29' E 017°13'0 0.0
2017-Aug-22 02:28N 40°29' E 017°13'0 0.0
2017-Aug-22 01:58N 40°29' E 017°13'0 0.0
2017-Aug-22 01:28N 40°29' E 017°13'0 0.0
2017-Aug-22 00:58N 40°29' E 017°13'0 0.0
2017-Aug-22 00:28N 40°29' E 017°13'0 0.0
2017-Aug-21 23:55N 40°29' E 017°13'0 0.0
2017-Aug-21 23:28N 40°29' E 017°13'0 0.1
2017-Aug-21 23:00N 40°29' E 017°13'4 8.2
2017-Aug-21 22:30N 40°25' E 017°10'2 3.7
2017-Aug-21 22:00N 40°24' E 017°08'1 1.9
2017-Aug-21 21:30N 40°23' E 017°08'3 5.9
2017-Aug-21 21:00N 40°20' E 017°09'612.2
2017-Aug-21 20:30N 40°14' E 017°10'612.1
2017-Aug-21 20:00N 40°09' E 017°12'611.8
2017-Aug-21 19:30N 40°03' E 017°13'611.8
2017-Aug-21 19:00N 39°57' E 017°14'611.6
2017-Aug-21 18:30N 39°51' E 017°15'1811.7
2017-Aug-21 16:59N 39°33' E 017°17'12410.9
2017-Aug-21 05:33N 37°38' E 016°17'211.7
2017-Aug-21 05:25N 37°37' E 016°16'511.7
2017-Aug-21 05:00N 37°33' E 016°12'811.6
2017-Aug-21 04:21N 37°28' E 016°06'5012.1
2017-Aug-21 00:12N 36°49' E 015°26'212.5
2017-Aug-21 00:00N 36°47' E 015°24'612.5
2017-Aug-20 23:29N 36°43' E 015°18'912.4
2017-Aug-20 22:46N 36°36' E 015°10'412.0
2017-Aug-20 22:25N 36°34' E 015°05'612.8
2017-Aug-20 21:56N 36°34' E 014°57'712.8
2017-Aug-20 21:23N 36°35' E 014°49'613.1
2017-Aug-20 20:58N 36°36' E 014°42'713.4
2017-Aug-20 20:25N 36°39' E 014°33'613.7
2017-Aug-20 20:00N 36°41' E 014°27'713.8
2017-Aug-20 19:30N 36°43' E 014°19'714.1
2017-Aug-20 19:00N 36°46' E 014°11'713.9
2017-Aug-20 18:30N 36°49' E 014°03'713.7
2017-Aug-20 18:00N 36°51' E 013°55'713.6
2017-Aug-20 17:30N 36°54' E 013°47'713.6
2017-Aug-20 17:00N 36°56' E 013°39'713.5
2017-Aug-20 16:30N 36°59' E 013°32'713.5
2017-Aug-20 16:00N 37°02' E 013°24'713.6
2017-Aug-20 15:30N 37°04' E 013°16'713.6
2017-Aug-20 15:00N 37°07' E 013°08'713.6
2017-Aug-20 14:30N 37°09' E 013°00'713.8
2017-Aug-20 14:00N 37°12' E 012°52'713.8
2017-Aug-20 13:30N 37°13' E 012°43'713.6
2017-Aug-20 13:00N 37°14' E 012°35'713.7
2017-Aug-20 12:30N 37°14' E 012°26'713.7
2017-Aug-20 12:00N 37°15' E 012°18'2113.0
2017-Aug-20 10:26N 37°17' E 011°52'1112.1
2017-Aug-20 09:32N 37°18' E 011°38'011.9
2017-Aug-20 09:29N 37°18' E 011°38'611.9
2017-Aug-20 09:00N 37°19' E 011°31'612.4
2017-Aug-20 08:30N 37°20' E 011°23'612.5
2017-Aug-20 08:00N 37°21' E 011°15'612.7
2017-Aug-20 07:30N 37°24' E 011°08'612.8
2017-Aug-20 07:00N 37°25' E 011°00'612.7
2017-Aug-20 06:30N 37°27' E 010°52'612.8
2017-Aug-20 06:00N 37°28' E 010°44'713.1
2017-Aug-20 05:30N 37°29' E 010°36'612.8
2017-Aug-20 05:00N 37°30' E 010°28'2212.5
2017-Aug-20 03:15N 37°33' E 010°01'27512.1
2017-Aug-19 04:36N 37°08' E 004°16'212.7
2017-Aug-19 04:26N 37°08' E 004°14'1812.5
2017-Aug-19 03:02N 37°06' E 003°52'112.7
2017-Aug-19 02:56N 37°06' E 003°50'512.7
2017-Aug-19 02:30N 37°05' E 003°43'612.6
2017-Aug-19 02:00N 37°04' E 003°36'612.4
2017-Aug-19 01:30N 37°03' E 003°28'612.6
2017-Aug-19 01:00N 37°02' E 003°20'612.4
2017-Aug-19 00:30N 37°01' E 003°13'612.3
2017-Aug-19 00:00N 37°00' E 003°05'612.3
2017-Aug-18 23:30N 36°59' E 002°57'712.3
2017-Aug-18 22:55N 36°58' E 002°48'512.1
2017-Aug-18 22:30N 36°57' E 002°42'612.1
2017-Aug-18 22:00N 36°57' E 002°35'1112.0
2017-Aug-18 21:03N 36°55' E 002°21'111.8
2017-Aug-18 21:00N 36°55' E 002°20'611.7
2017-Aug-18 20:30N 36°54' E 002°13'611.6
2017-Aug-18 20:00N 36°53' E 002°06'611.7
2017-Aug-18 19:30N 36°53' E 001°58'611.6
2017-Aug-18 19:00N 36°52' E 001°51'611.5
2017-Aug-18 18:30N 36°51' E 001°44'611.5
2017-Aug-18 18:00N 36°50' E 001°37'1211.3
2017-Aug-18 16:57N 36°48' E 001°22'4711.8
2017-Aug-18 12:57N 36°41' E 000°24'1712.1
2017-Aug-18 11:34N 36°38' E 000°03'112.1
2017-Aug-18 11:30N 36°38' E 000°02'712.0
2017-Aug-18 10:53N 36°37' W 000°07'511.9
2017-Aug-18 10:26N 36°36' W 000°13'1111.6
2017-Aug-18 09:30N 36°34' W 000°27'712.1
2017-Aug-18 08:54N 36°33' W 000°36'512.6
2017-Aug-18 08:30N 36°33' W 000°42'612.5
2017-Aug-18 07:59N 36°32' W 000°50'812.4
2017-Aug-18 07:19N 36°31' W 001°00'1212.2
2017-Aug-18 06:20N 36°29' W 001°15'512.4
2017-Aug-18 05:56N 36°28' W 001°21'1012.5
2017-Aug-18 05:10N 36°27' W 001°33'312.6
2017-Aug-18 04:56N 36°26' W 001°37'712.6
2017-Aug-18 04:24N 36°25' W 001°45'1712.8
2017-Aug-18 03:03N 36°23' W 002°06'112.7
2017-Aug-18 02:56N 36°23' W 002°08'1812.8
2017-Aug-18 01:34N 36°20' W 002°29'512.6
2017-Aug-18 01:09N 36°20' W 002°36'18513.0
2017-Aug-17 10:53N 35°56' W 006°23'1512.5
2017-Aug-17 09:41N 35°59' W 006°41'1012.4
2017-Aug-17 08:53N 36°02' W 006°53'3012.3
2017-Aug-17 06:29N 36°09' W 007°29'1112.6
2017-Aug-17 05:38N 36°11' W 007°41'212.8
2017-Aug-17 05:30N 36°12' W 007°43'1412.8
2017-Aug-17 04:26N 36°15' W 007°60'612.5
2017-Aug-17 04:00N 36°16' W 008°06'912.4
2017-Aug-17 03:15N 36°19' W 008°18'312.1
2017-Aug-17 02:59N 36°19' W 008°22'612.1
2017-Aug-17 02:28N 36°21' W 008°29'712.2
2017-Aug-17 01:56N 36°22' W 008°37'1811.8
2017-Aug-17 00:26N 36°26' W 008°58'511.7
2017-Aug-17 00:00N 36°27' W 009°05'612.0
2017-Aug-16 23:30N 36°28' W 009°12'611.8
2017-Aug-16 23:01N 36°30' W 009°19'612.3
2017-Aug-16 22:30N 36°34' W 009°24'1212.9
2017-Aug-16 21:33N 36°43' W 009°35'112.9
2017-Aug-16 21:30N 36°44' W 009°35'612.6
2017-Aug-16 21:00N 36°50' W 009°38'713.1
2017-Aug-16 20:30N 36°56' W 009°40'713.5
2017-Aug-16 20:00N 37°03' W 009°41'713.1
2017-Aug-16 19:30N 37°09' W 009°42'713.2
2017-Aug-16 19:00N 37°16' W 009°44'612.9
2017-Aug-16 18:30N 37°22' W 009°46'612.9
2017-Aug-16 18:00N 37°28' W 009°49'713.3
2017-Aug-16 17:30N 37°34' W 009°51'713.1
2017-Aug-16 17:00N 37°41' W 009°53'612.9
2017-Aug-16 16:30N 37°47' W 009°55'612.7
2017-Aug-16 16:00N 37°53' W 009°56'612.6
2017-Aug-16 15:30N 37°59' W 009°58'612.7
2017-Aug-16 15:00N 38°06' W 009°60'612.4
2017-Aug-16 14:30N 38°11' W 010°02'712.5
2017-Aug-16 13:59N 38°18' W 010°04'612.9
2017-Aug-16 13:30N 38°24' W 010°06'612.8
2017-Aug-16 13:00N 38°30' W 010°08'612.6
2017-Aug-16 12:30N 38°36' W 010°10'612.2
2017-Aug-16 12:00N 38°42' W 010°11'612.3
2017-Aug-16 11:30N 38°48' W 010°11'612.8
2017-Aug-16 11:01N 38°55' W 010°11'713.0
2017-Aug-16 10:31N 39°01' W 010°11'612.8
2017-Aug-16 10:00N 39°08' W 010°12'713.1
2017-Aug-16 09:30N 39°14' W 010°12'612.6
2017-Aug-16 09:01N 39°20' W 010°12'612.5
2017-Aug-16 08:30N 39°27' W 010°13'612.2
2017-Aug-16 08:00N 39°33' W 010°13'812.6
2017-Aug-16 07:23N 39°41' W 010°13'512.5
2017-Aug-16 06:58N 39°46' W 010°13'612.6
2017-Aug-16 06:30N 39°52' W 010°13'712.7
2017-Aug-16 05:59N 39°58' W 010°13'712.2
2017-Aug-16 05:26N 40°05' W 010°11'512.5
2017-Aug-16 05:00N 40°10' W 010°11'712.3
2017-Aug-16 04:25N 40°17' W 010°11'4012.7
2017-Aug-16 01:17N 40°57' W 010°12'312.4
2017-Aug-16 01:00N 41°01' W 010°12'50612.0
2017-Aug-14 06:58N 48°51' W 005°49'811.8
2017-Aug-14 06:19N 48°56' W 005°40'411.7
2017-Aug-14 06:00N 48°59' W 005°35'712.1
2017-Aug-14 05:25N 49°02' W 005°26'512.4
2017-Aug-14 05:00N 49°05' W 005°19'612.8
2017-Aug-14 04:30N 49°08' W 005°11'913.4
2017-Aug-14 03:52N 49°13' W 004°60'513.7
2017-Aug-14 03:28N 49°16' W 004°53'714.0
2017-Aug-14 03:00N 49°19' W 004°44'714.1
2017-Aug-14 02:30N 49°22' W 004°35'714.0
2017-Aug-14 02:00N 49°26' W 004°25'713.8
2017-Aug-14 01:30N 49°29' W 004°16'713.4
2017-Aug-14 01:00N 49°33' W 004°07'713.2
2017-Aug-14 00:30N 49°36' W 003°58'612.7
2017-Aug-14 00:00N 49°39' W 003°50'612.3
2017-Aug-13 23:30N 49°42' W 003°42'612.1
2017-Aug-13 23:00N 49°45' W 003°34'611.8
2017-Aug-13 22:30N 49°48' W 003°26'611.6
2017-Aug-13 22:00N 49°51' W 003°18'611.5
2017-Aug-13 21:30N 49°54' W 003°11'611.9
2017-Aug-13 21:00N 49°57' W 003°03'612.3
2017-Aug-13 20:30N 49°60' W 002°54'713.1
2017-Aug-13 19:59N 50°02' W 002°44'613.6
2017-Aug-13 19:30N 50°04' W 002°34'1014.5
2017-Aug-13 18:47N 50°07' W 002°18'515.4
2017-Aug-13 18:26N 50°08' W 002°10'715.8
2017-Aug-13 18:00N 50°10' W 002°00'816.1
2017-Aug-13 17:31N 50°13' W 001°48'916.1
2017-Aug-13 16:59N 50°15' W 001°35'715.9
2017-Aug-13 16:30N 50°17' W 001°24'815.5
2017-Aug-13 16:00N 50°19' W 001°12'714.7
2017-Aug-13 15:30N 50°21' W 001°01'714.0
2017-Aug-13 15:00N 50°24' W 000°51'612.7
2017-Aug-13 14:30N 50°26' W 000°42'611.7
2017-Aug-13 14:00N 50°27' W 000°33'611.7
2017-Aug-13 13:30N 50°28' W 000°24'611.4
2017-Aug-13 13:00N 50°30' W 000°15'611.2
2017-Aug-13 12:30N 50°31' W 000°06'611.1
2017-Aug-13 12:00N 50°33' E 000°02'611.2
2017-Aug-13 11:30N 50°34' E 000°10'611.6
2017-Aug-13 11:00N 50°36' E 000°19'612.2
2017-Aug-13 10:30N 50°38' E 000°28'612.9
2017-Aug-13 10:00N 50°41' E 000°37'714.0
2017-Aug-13 09:30N 50°44' E 000°47'714.5
2017-Aug-13 09:00N 50°48' E 000°56'814.7
2017-Aug-13 08:29N 50°53' E 001°06'714.6
2017-Aug-13 08:00N 50°57' E 001°15'714.2
2017-Aug-13 07:31N 51°02' E 001°23'713.5
2017-Aug-13 07:01N 51°06' E 001°32'612.2
2017-Aug-13 06:31N 51°10' E 001°39'611.7
2017-Aug-13 06:00N 51°14' E 001°46'611.5
2017-Aug-13 05:31N 51°19' E 001°50'510.6
2017-Aug-13 05:01N 51°22' E 001°57'5 9.4
2017-Aug-13 04:30N 51°25' E 002°03'612.0
2017-Aug-13 04:01N 51°22' E 002°12'511.0
2017-Aug-13 03:31N 51°21' E 002°21'611.2
2017-Aug-13 03:01N 51°23' E 002°29'611.5
2017-Aug-13 02:30N 51°23' E 002°39'611.4
2017-Aug-13 02:01N 51°22' E 002°48'612.4
2017-Aug-13 01:31N 51°23' E 002°57'612.0
2017-Aug-13 01:01N 51°24' E 003°07'612.3
2017-Aug-13 00:30N 51°25' E 003°17'612.4
2017-Aug-13 00:01N 51°25' E 003°27'611.6
2017-Aug-12 23:30N 51°26' E 003°36'611.5
2017-Aug-12 23:01N 51°23' E 003°44'713.0
2017-Aug-12 22:31N 51°22' E 003°54'612.7
2017-Aug-12 22:00N 51°26' E 004°01'611.6
2017-Aug-12 21:30N 51°23' E 004°09'510.5
2017-Aug-12 21:01N 51°20' E 004°16'4 8.4
2017-Aug-12 20:31N 51°17' E 004°20'0 0.5
2017-Aug-12 20:00N 51°16' E 004°20'1 1.1
2017-Aug-12 19:30N 51°17' E 004°21'0 0.0
2017-Aug-12 19:00N 51°17' E 004°21'0 0.0
2017-Aug-12 18:30N 51°17' E 004°21'0 0.0
2017-Aug-12 18:00N 51°17' E 004°21'0 0.0
2017-Aug-12 17:30N 51°17' E 004°21'0 0.0
2017-Aug-12 17:00N 51°17' E 004°21'0 0.0
2017-Aug-12 16:30N 51°17' E 004°21'0 0.0
2017-Aug-12 16:00N 51°17' E 004°21'0 0.0
2017-Aug-12 15:30N 51°17' E 004°21'0 0.0
2017-Aug-12 15:00N 51°17' E 004°21'0 0.0
2017-Aug-12 14:30N 51°17' E 004°21'0 0.0
2017-Aug-12 14:00N 51°17' E 004°21'0 0.0
2017-Aug-12 13:30N 51°17' E 004°21'0 0.0
2017-Aug-12 12:57N 51°17' E 004°21'0 0.0
2017-Aug-12 12:30N 51°17' E 004°21'0 0.0
2017-Aug-12 12:00N 51°17' E 004°21'0 0.0
2017-Aug-12 11:27N 51°17' E 004°21'0 0.0
2017-Aug-12 11:00N 51°17' E 004°21'0 0.0
2017-Aug-12 10:30N 51°17' E 004°21'0 0.0
2017-Aug-12 10:00N 51°17' E 004°21'0 0.0
2017-Aug-12 09:30N 51°17' E 004°21'0 0.0
2017-Aug-12 09:00N 51°17' E 004°21'0 0.0
2017-Aug-12 08:30N 51°17' E 004°21'0 0.0
2017-Aug-12 07:57N 51°17' E 004°21'0 0.0
2017-Aug-12 07:30N 51°17' E 004°21'  

Dump ship's entire track history